sensor_id;sensor_type;location;lat;lon;timestamp;pressure;altitude;pressure_sealevel;temperature
71463;BMP180;59266;52.608;13.260;2024-03-29T00:02:12;99420.00;;;9.20
71463;BMP180;59266;52.608;13.260;2024-03-29T00:04:38;99430.00;;;9.10
71463;BMP180;59266;52.608;13.260;2024-03-29T00:07:03;99435.00;;;9.10
71463;BMP180;59266;52.608;13.260;2024-03-29T00:09:29;99442.00;;;9.20
71463;BMP180;59266;52.608;13.260;2024-03-29T00:11:55;99443.00;;;9.20
71463;BMP180;59266;52.608;13.260;2024-03-29T00:14:21;99441.00;;;9.10
71463;BMP180;59266;52.608;13.260;2024-03-29T00:16:46;99434.00;;;8.90
71463;BMP180;59266;52.608;13.260;2024-03-29T00:19:12;99454.00;;;8.80
71463;BMP180;59266;52.608;13.260;2024-03-29T00:21:37;99454.00;;;8.80
71463;BMP180;59266;52.608;13.260;2024-03-29T00:24:03;99450.00;;;8.80
71463;BMP180;59266;52.608;13.260;2024-03-29T00:26:29;99456.00;;;8.70
71463;BMP180;59266;52.608;13.260;2024-03-29T00:28:54;99454.00;;;8.90
71463;BMP180;59266;52.608;13.260;2024-03-29T00:31:20;99464.00;;;8.80
71463;BMP180;59266;52.608;13.260;2024-03-29T00:33:46;99469.00;;;8.90
71463;BMP180;59266;52.608;13.260;2024-03-29T00:36:11;99461.00;;;8.80
71463;BMP180;59266;52.608;13.260;2024-03-29T00:38:37;99461.00;;;8.70
71463;BMP180;59266;52.608;13.260;2024-03-29T00:41:03;99466.00;;;8.80
71463;BMP180;59266;52.608;13.260;2024-03-29T00:43:28;99472.00;;;8.80
71463;BMP180;59266;52.608;13.260;2024-03-29T00:45:54;99480.00;;;8.70
71463;BMP180;59266;52.608;13.260;2024-03-29T00:48:19;99482.00;;;8.60
71463;BMP180;59266;52.608;13.260;2024-03-29T00:50:46;99486.00;;;8.70
71463;BMP180;59266;52.608;13.260;2024-03-29T00:53:11;99485.00;;;8.70
71463;BMP180;59266;52.608;13.260;2024-03-29T00:55:37;99486.00;;;8.70
71463;BMP180;59266;52.608;13.260;2024-03-29T00:58:02;99490.00;;;8.60
71463;BMP180;59266;52.608;13.260;2024-03-29T01:00:28;99487.00;;;8.60
71463;BMP180;59266;52.608;13.260;2024-03-29T01:02:54;99495.00;;;8.40
71463;BMP180;59266;52.608;13.260;2024-03-29T01:05:19;99484.00;;;8.30
71463;BMP180;59266;52.608;13.260;2024-03-29T01:07:45;99484.00;;;8.30
71463;BMP180;59266;52.608;13.260;2024-03-29T01:10:10;99468.00;;;8.20
71463;BMP180;59266;52.608;13.260;2024-03-29T01:12:36;99477.00;;;8.20
71463;BMP180;59266;52.608;13.260;2024-03-29T01:15:02;99481.00;;;8.10
71463;BMP180;59266;52.608;13.260;2024-03-29T01:17:29;99481.00;;;8.10
71463;BMP180;59266;52.608;13.260;2024-03-29T01:19:54;99486.00;;;8.10
71463;BMP180;59266;52.608;13.260;2024-03-29T01:22:20;99482.00;;;8.00
71463;BMP180;59266;52.608;13.260;2024-03-29T01:24:45;99478.00;;;8.00
71463;BMP180;59266;52.608;13.260;2024-03-29T01:27:11;99486.00;;;8.00
71463;BMP180;59266;52.608;13.260;2024-03-29T01:29:37;99480.00;;;7.90
71463;BMP180;59266;52.608;13.260;2024-03-29T01:32:03;99475.00;;;7.90
71463;BMP180;59266;52.608;13.260;2024-03-29T01:34:29;99473.00;;;7.90
71463;BMP180;59266;52.608;13.260;2024-03-29T01:36:54;99480.00;;;7.80
71463;BMP180;59266;52.608;13.260;2024-03-29T01:39:20;99483.00;;;7.70
71463;BMP180;59266;52.608;13.260;2024-03-29T01:41:50;99488.00;;;7.70
71463;BMP180;59266;52.608;13.260;2024-03-29T01:44:15;99487.00;;;7.70
71463;BMP180;59266;52.608;13.260;2024-03-29T01:46:43;99490.00;;;7.60
71463;BMP180;59266;52.608;13.260;2024-03-29T01:49:10;99490.00;;;7.60
71463;BMP180;59266;52.608;13.260;2024-03-29T01:51:37;99483.00;;;7.60
71463;BMP180;59266;52.608;13.260;2024-03-29T01:54:04;99481.00;;;7.60
71463;BMP180;59266;52.608;13.260;2024-03-29T01:56:29;99487.00;;;7.50
71463;BMP180;59266;52.608;13.260;2024-03-29T01:58:56;99489.00;;;7.50
71463;BMP180;59266;52.608;13.260;2024-03-29T02:01:24;99494.00;;;7.50
71463;BMP180;59266;52.608;13.260;2024-03-29T02:03:51;99495.00;;;7.40
71463;BMP180;59266;52.608;13.260;2024-03-29T02:06:17;99492.00;;;7.40
71463;BMP180;59266;52.608;13.260;2024-03-29T02:08:43;99497.00;;;7.40
71463;BMP180;59266;52.608;13.260;2024-03-29T02:11:08;99493.00;;;7.40
71463;BMP180;59266;52.608;13.260;2024-03-29T02:13:34;99502.00;;;7.40
71463;BMP180;59266;52.608;13.260;2024-03-29T02:15:59;99509.00;;;7.40
71463;BMP180;59266;52.608;13.260;2024-03-29T02:18:25;99513.00;;;7.40
71463;BMP180;59266;52.608;13.260;2024-03-29T02:20:51;99508.00;;;7.30
71463;BMP180;59266;52.608;13.260;2024-03-29T02:23:20;99500.00;;;7.30
71463;BMP180;59266;52.608;13.260;2024-03-29T02:25:48;99498.00;;;7.20
71463;BMP180;59266;52.608;13.260;2024-03-29T02:28:13;99494.00;;;7.10
71463;BMP180;59266;52.608;13.260;2024-03-29T02:30:39;99497.00;;;7.10
71463;BMP180;59266;52.608;13.260;2024-03-29T02:33:04;99495.00;;;7.10
71463;BMP180;59266;52.608;13.260;2024-03-29T02:35:30;99514.00;;;7.10
71463;BMP180;59266;52.608;13.260;2024-03-29T02:37:56;99507.00;;;6.90
71463;BMP180;59266;52.608;13.260;2024-03-29T02:40:22;99504.00;;;6.90
71463;BMP180;59266;52.608;13.260;2024-03-29T02:42:48;99512.00;;;6.90
71463;BMP180;59266;52.608;13.260;2024-03-29T02:45:14;99520.00;;;6.80
71463;BMP180;59266;52.608;13.260;2024-03-29T02:47:39;99517.00;;;6.80
71463;BMP180;59266;52.608;13.260;2024-03-29T02:50:06;99522.00;;;6.70
71463;BMP180;59266;52.608;13.260;2024-03-29T02:52:32;99518.00;;;6.70
71463;BMP180;59266;52.608;13.260;2024-03-29T02:54:57;99520.00;;;6.70
71463;BMP180;59266;52.608;13.260;2024-03-29T02:57:23;99506.00;;;6.80
71463;BMP180;59266;52.608;13.260;2024-03-29T02:59:48;99513.00;;;6.70
71463;BMP180;59266;52.608;13.260;2024-03-29T03:02:14;99513.00;;;6.60
71463;BMP180;59266;52.608;13.260;2024-03-29T03:04:39;99514.00;;;6.70
71463;BMP180;59266;52.608;13.260;2024-03-29T03:07:05;99513.00;;;6.70
71463;BMP180;59266;52.608;13.260;2024-03-29T03:09:49;99530.00;;;6.60
71463;BMP180;59266;52.608;13.260;2024-03-29T03:12:33;99536.00;;;6.50
71463;BMP180;59266;52.608;13.260;2024-03-29T03:14:59;99536.00;;;6.50
71463;BMP180;59266;52.608;13.260;2024-03-29T03:17:26;99537.00;;;6.50
71463;BMP180;59266;52.608;13.260;2024-03-29T03:19:52;99537.00;;;6.50
71463;BMP180;59266;52.608;13.260;2024-03-29T03:22:17;99541.00;;;6.40
71463;BMP180;59266;52.608;13.260;2024-03-29T03:24:43;99536.00;;;6.30
71463;BMP180;59266;52.608;13.260;2024-03-29T03:27:09;99535.00;;;6.30
71463;BMP180;59266;52.608;13.260;2024-03-29T03:29:34;99549.00;;;6.40
71463;BMP180;59266;52.608;13.260;2024-03-29T03:32:00;99553.00;;;6.40
71463;BMP180;59266;52.608;13.260;2024-03-29T03:34:25;99557.00;;;6.40
71463;BMP180;59266;52.608;13.260;2024-03-29T03:36:51;99554.00;;;6.30
71463;BMP180;59266;52.608;13.260;2024-03-29T03:39:17;99548.00;;;6.30
71463;BMP180;59266;52.608;13.260;2024-03-29T03:41:42;99568.00;;;6.30
71463;BMP180;59266;52.608;13.260;2024-03-29T03:44:08;99569.00;;;6.40
71463;BMP180;59266;52.608;13.260;2024-03-29T03:46:33;99576.00;;;6.40
71463;BMP180;59266;52.608;13.260;2024-03-29T03:48:59;99560.00;;;6.30
71463;BMP180;59266;52.608;13.260;2024-03-29T03:51:24;99554.00;;;6.30
71463;BMP180;59266;52.608;13.260;2024-03-29T03:53:50;99550.00;;;6.30
71463;BMP180;59266;52.608;13.260;2024-03-29T03:56:16;99548.00;;;6.20
71463;BMP180;59266;52.608;13.260;2024-03-29T03:58:44;99522.00;;;6.10
71463;BMP180;59266;52.608;13.260;2024-03-29T04:01:09;99521.00;;;6.10
71463;BMP180;59266;52.608;13.260;2024-03-29T04:03:35;99534.00;;;6.10
71463;BMP180;59266;52.608;13.260;2024-03-29T04:06:04;99527.00;;;6.10
71463;BMP180;59266;52.608;13.260;2024-03-29T04:08:29;99524.00;;;6.10
71463;BMP180;59266;52.608;13.260;2024-03-29T04:10:55;99523.00;;;6.10
71463;BMP180;59266;52.608;13.260;2024-03-29T04:13:21;99535.00;;;6.10
71463;BMP180;59266;52.608;13.260;2024-03-29T04:15:47;99539.00;;;6.00
71463;BMP180;59266;52.608;13.260;2024-03-29T04:18:15;99527.00;;;5.90
71463;BMP180;59266;52.608;13.260;2024-03-29T04:20:41;99529.00;;;5.90
71463;BMP180;59266;52.608;13.260;2024-03-29T04:23:07;99533.00;;;6.00
71463;BMP180;59266;52.608;13.260;2024-03-29T04:25:32;99538.00;;;5.90
71463;BMP180;59266;52.608;13.260;2024-03-29T04:27:58;99527.00;;;5.80
71463;BMP180;59266;52.608;13.260;2024-03-29T04:30:24;99532.00;;;5.70
71463;BMP180;59266;52.608;13.260;2024-03-29T04:32:49;99540.00;;;5.70
71463;BMP180;59266;52.608;13.260;2024-03-29T04:35:15;99534.00;;;5.70
71463;BMP180;59266;52.608;13.260;2024-03-29T04:37:41;99536.00;;;5.80
71463;BMP180;59266;52.608;13.260;2024-03-29T04:40:06;99543.00;;;5.80
71463;BMP180;59266;52.608;13.260;2024-03-29T04:42:32;99535.00;;;5.90
71463;BMP180;59266;52.608;13.260;2024-03-29T04:44:58;99534.00;;;5.80
71463;BMP180;59266;52.608;13.260;2024-03-29T04:47:23;99527.00;;;5.90
71463;BMP180;59266;52.608;13.260;2024-03-29T04:49:49;99531.00;;;5.90
71463;BMP180;59266;52.608;13.260;2024-03-29T04:52:15;99509.00;;;5.90
71463;BMP180;59266;52.608;13.260;2024-03-29T04:54:40;99524.00;;;6.00
71463;BMP180;59266;52.608;13.260;2024-03-29T04:57:06;99528.00;;;5.90
71463;BMP180;59266;52.608;13.260;2024-03-29T04:59:32;99514.00;;;5.90
71463;BMP180;59266;52.608;13.260;2024-03-29T05:01:59;99516.00;;;6.00
71463;BMP180;59266;52.608;13.260;2024-03-29T05:04:24;99514.00;;;6.00
71463;BMP180;59266;52.608;13.260;2024-03-29T05:06:56;99508.00;;;6.10
71463;BMP180;59266;52.608;13.260;2024-03-29T05:09:22;99515.00;;;6.20
71463;BMP180;59266;52.608;13.260;2024-03-29T05:11:48;99540.00;;;6.20
71463;BMP180;59266;52.608;13.260;2024-03-29T05:14:18;99539.00;;;6.30
71463;BMP180;59266;52.608;13.260;2024-03-29T05:16:47;99535.00;;;6.30
71463;BMP180;59266;52.608;13.260;2024-03-29T05:19:14;99560.00;;;6.20
71463;BMP180;59266;52.608;13.260;2024-03-29T05:21:40;99543.00;;;6.40
71463;BMP180;59266;52.608;13.260;2024-03-29T05:24:06;99552.00;;;6.50
71463;BMP180;59266;52.608;13.260;2024-03-29T05:26:32;99565.00;;;6.50
71463;BMP180;59266;52.608;13.260;2024-03-29T05:28:58;99549.00;;;6.60
71463;BMP180;59266;52.608;13.260;2024-03-29T05:31:25;99553.00;;;6.60
71463;BMP180;59266;52.608;13.260;2024-03-29T05:33:51;99571.00;;;6.60
71463;BMP180;59266;52.608;13.260;2024-03-29T05:36:17;99560.00;;;6.80
71463;BMP180;59266;52.608;13.260;2024-03-29T05:38:43;99547.00;;;6.80
71463;BMP180;59266;52.608;13.260;2024-03-29T05:41:09;99532.00;;;6.80
71463;BMP180;59266;52.608;13.260;2024-03-29T05:43:35;99524.00;;;6.80
71463;BMP180;59266;52.608;13.260;2024-03-29T05:46:00;99522.00;;;6.90
71463;BMP180;59266;52.608;13.260;2024-03-29T05:48:27;99521.00;;;6.90
71463;BMP180;59266;52.608;13.260;2024-03-29T05:50:53;99528.00;;;7.00
71463;BMP180;59266;52.608;13.260;2024-03-29T05:53:18;99531.00;;;7.00
71463;BMP180;59266;52.608;13.260;2024-03-29T05:55:44;99546.00;;;7.10
71463;BMP180;59266;52.608;13.260;2024-03-29T05:58:10;99534.00;;;7.20
71463;BMP180;59266;52.608;13.260;2024-03-29T06:00:35;99543.00;;;7.20
71463;BMP180;59266;52.608;13.260;2024-03-29T06:03:02;99549.00;;;7.30
71463;BMP180;59266;52.608;13.260;2024-03-29T06:05:30;99541.00;;;7.30
71463;BMP180;59266;52.608;13.260;2024-03-29T06:07:56;99555.00;;;7.40
71463;BMP180;59266;52.608;13.260;2024-03-29T06:10:22;99565.00;;;7.50
71463;BMP180;59266;52.608;13.260;2024-03-29T06:12:48;99565.00;;;7.60
71463;BMP180;59266;52.608;13.260;2024-03-29T06:15:13;99579.00;;;7.80
71463;BMP180;59266;52.608;13.260;2024-03-29T06:17:57;99573.00;;;7.80
71463;BMP180;59266;52.608;13.260;2024-03-29T06:20:24;99569.00;;;7.90
71463;BMP180;59266;52.608;13.260;2024-03-29T06:22:49;99578.00;;;7.90
71463;BMP180;59266;52.608;13.260;2024-03-29T06:25:15;99575.00;;;8.00
71463;BMP180;59266;52.608;13.260;2024-03-29T06:27:41;99582.00;;;8.10
71463;BMP180;59266;52.608;13.260;2024-03-29T06:30:09;99588.00;;;8.20
71463;BMP180;59266;52.608;13.260;2024-03-29T06:32:35;99590.00;;;8.20
71463;BMP180;59266;52.608;13.260;2024-03-29T06:35:01;99594.00;;;8.30
71463;BMP180;59266;52.608;13.260;2024-03-29T06:37:28;99600.00;;;8.50
71463;BMP180;59266;52.608;13.260;2024-03-29T06:39:54;99602.00;;;8.40
71463;BMP180;59266;52.608;13.260;2024-03-29T06:42:20;99599.00;;;8.50
71463;BMP180;59266;52.608;13.260;2024-03-29T06:44:45;99598.00;;;8.70
71463;BMP180;59266;52.608;13.260;2024-03-29T06:47:11;99607.00;;;8.80
71463;BMP180;59266;52.608;13.260;2024-03-29T06:49:37;99601.00;;;8.90
71463;BMP180;59266;52.608;13.260;2024-03-29T06:52:03;99604.00;;;9.10
71463;BMP180;59266;52.608;13.260;2024-03-29T06:54:29;99612.00;;;9.20
71463;BMP180;59266;52.608;13.260;2024-03-29T06:56:55;99604.00;;;9.40
71463;BMP180;59266;52.608;13.260;2024-03-29T06:59:21;99621.00;;;9.60
71463;BMP180;59266;52.608;13.260;2024-03-29T07:01:47;99621.00;;;9.80
71463;BMP180;59266;52.608;13.260;2024-03-29T07:04:18;99616.00;;;9.90
71463;BMP180;59266;52.608;13.260;2024-03-29T07:06:45;99608.00;;;10.00
71463;BMP180;59266;52.608;13.260;2024-03-29T07:09:13;99613.00;;;10.10
71463;BMP180;59266;52.608;13.260;2024-03-29T07:11:40;99605.00;;;10.20
71463;BMP180;59266;52.608;13.260;2024-03-29T07:14:05;99630.00;;;10.50
71463;BMP180;59266;52.608;13.260;2024-03-29T07:16:31;99633.00;;;10.40
71463;BMP180;59266;52.608;13.260;2024-03-29T07:18:57;99642.00;;;10.50
71463;BMP180;59266;52.608;13.260;2024-03-29T07:21:24;99650.00;;;10.50
71463;BMP180;59266;52.608;13.260;2024-03-29T07:23:49;99656.00;;;10.50
71463;BMP180;59266;52.608;13.260;2024-03-29T07:26:15;99658.00;;;10.50
71463;BMP180;59266;52.608;13.260;2024-03-29T07:28:40;99668.00;;;10.40
71463;BMP180;59266;52.608;13.260;2024-03-29T07:31:06;99648.00;;;10.30
71463;BMP180;59266;52.608;13.260;2024-03-29T07:33:36;99661.00;;;10.30
71463;BMP180;59266;52.608;13.260;2024-03-29T07:36:02;99666.00;;;10.20
71463;BMP180;59266;52.608;13.260;2024-03-29T07:38:29;99681.00;;;10.40
71463;BMP180;59266;52.608;13.260;2024-03-29T07:40:55;99684.00;;;10.40
71463;BMP180;59266;52.608;13.260;2024-03-29T07:43:21;99682.00;;;10.50
71463;BMP180;59266;52.608;13.260;2024-03-29T07:45:47;99687.00;;;10.50
71463;BMP180;59266;52.608;13.260;2024-03-29T07:48:16;99673.00;;;10.50
71463;BMP180;59266;52.608;13.260;2024-03-29T07:50:43;99673.00;;;10.40
71463;BMP180;59266;52.608;13.260;2024-03-29T07:53:09;99677.00;;;10.60
71463;BMP180;59266;52.608;13.260;2024-03-29T07:55:36;99669.00;;;10.70
71463;BMP180;59266;52.608;13.260;2024-03-29T07:58:02;99689.00;;;10.90
71463;BMP180;59266;52.608;13.260;2024-03-29T08:00:34;99692.00;;;10.90
71463;BMP180;59266;52.608;13.260;2024-03-29T08:03:00;99694.00;;;11.00
71463;BMP180;59266;52.608;13.260;2024-03-29T08:05:27;99707.00;;;11.10
71463;BMP180;59266;52.608;13.260;2024-03-29T08:07:52;99714.00;;;11.10
71463;BMP180;59266;52.608;13.260;2024-03-29T08:10:18;99714.00;;;11.00
71463;BMP180;59266;52.608;13.260;2024-03-29T08:12:44;99708.00;;;10.90
71463;BMP180;59266;52.608;13.260;2024-03-29T08:15:09;99705.00;;;10.90
71463;BMP180;59266;52.608;13.260;2024-03-29T08:17:36;99700.00;;;11.10
71463;BMP180;59266;52.608;13.260;2024-03-29T08:20:03;99690.00;;;11.30
71463;BMP180;59266;52.608;13.260;2024-03-29T08:22:28;99717.00;;;11.10
71463;BMP180;59266;52.608;13.260;2024-03-29T08:24:55;99713.00;;;11.30
71463;BMP180;59266;52.608;13.260;2024-03-29T08:27:20;99710.00;;;11.40
71463;BMP180;59266;52.608;13.260;2024-03-29T08:29:46;99696.00;;;11.40
71463;BMP180;59266;52.608;13.260;2024-03-29T08:32:14;99692.00;;;11.50
71463;BMP180;59266;52.608;13.260;2024-03-29T08:34:40;99677.00;;;11.80
71463;BMP180;59266;52.608;13.260;2024-03-29T08:37:06;99664.00;;;11.80
71463;BMP180;59266;52.608;13.260;2024-03-29T08:39:31;99665.00;;;11.70
71463;BMP180;59266;52.608;13.260;2024-03-29T08:42:00;99659.00;;;11.80
71463;BMP180;59266;52.608;13.260;2024-03-29T08:44:34;99649.00;;;11.90
71463;BMP180;59266;52.608;13.260;2024-03-29T08:47:00;99665.00;;;11.90
71463;BMP180;59266;52.608;13.260;2024-03-29T08:49:29;99677.00;;;12.40
71463;BMP180;59266;52.608;13.260;2024-03-29T08:51:56;99673.00;;;12.50
71463;BMP180;59266;52.608;13.260;2024-03-29T08:54:21;99671.00;;;12.50
71463;BMP180;59266;52.608;13.260;2024-03-29T08:56:47;99655.00;;;12.70
71463;BMP180;59266;52.608;13.260;2024-03-29T08:59:13;99659.00;;;12.80
71463;BMP180;59266;52.608;13.260;2024-03-29T09:01:45;99657.00;;;13.00
71463;BMP180;59266;52.608;13.260;2024-03-29T09:04:10;99660.00;;;13.20
71463;BMP180;59266;52.608;13.260;2024-03-29T09:06:37;99662.00;;;13.40
71463;BMP180;59266;52.608;13.260;2024-03-29T09:09:04;99667.00;;;13.20
71463;BMP180;59266;52.608;13.260;2024-03-29T09:11:30;99672.00;;;13.40
71463;BMP180;59266;52.608;13.260;2024-03-29T09:13:56;99669.00;;;13.40
71463;BMP180;59266;52.608;13.260;2024-03-29T09:16:27;99674.00;;;13.80
71463;BMP180;59266;52.608;13.260;2024-03-29T09:18:54;99672.00;;;13.30
71463;BMP180;59266;52.608;13.260;2024-03-29T09:21:20;99682.00;;;13.20
71463;BMP180;59266;52.608;13.260;2024-03-29T09:23:46;99686.00;;;13.30
71463;BMP180;59266;52.608;13.260;2024-03-29T09:26:12;99682.00;;;13.10
71463;BMP180;59266;52.608;13.260;2024-03-29T09:28:39;99669.00;;;13.60
71463;BMP180;59266;52.608;13.260;2024-03-29T09:31:05;99682.00;;;13.70
71463;BMP180;59266;52.608;13.260;2024-03-29T09:33:31;99678.00;;;13.20
71463;BMP180;59266;52.608;13.260;2024-03-29T09:35:57;99685.00;;;13.20
71463;BMP180;59266;52.608;13.260;2024-03-29T09:38:25;99685.00;;;13.50
71463;BMP180;59266;52.608;13.260;2024-03-29T09:41:01;99678.00;;;13.60
71463;BMP180;59266;52.608;13.260;2024-03-29T09:43:30;99679.00;;;13.80
71463;BMP180;59266;52.608;13.260;2024-03-29T09:45:56;99679.00;;;14.00
71463;BMP180;59266;52.608;13.260;2024-03-29T09:48:22;99680.00;;;14.10
71463;BMP180;59266;52.608;13.260;2024-03-29T09:50:49;99678.00;;;14.20
71463;BMP180;59266;52.608;13.260;2024-03-29T09:53:16;99685.00;;;14.10
71463;BMP180;59266;52.608;13.260;2024-03-29T09:55:44;99683.00;;;14.20
71463;BMP180;59266;52.608;13.260;2024-03-29T09:58:10;99689.00;;;14.00
71463;BMP180;59266;52.608;13.260;2024-03-29T10:00:36;99690.00;;;13.80
71463;BMP180;59266;52.608;13.260;2024-03-29T10:03:03;99689.00;;;13.80
71463;BMP180;59266;52.608;13.260;2024-03-29T10:05:28;99685.00;;;13.90
71463;BMP180;59266;52.608;13.260;2024-03-29T10:07:54;99683.00;;;14.00
71463;BMP180;59266;52.608;13.260;2024-03-29T10:10:21;99683.00;;;13.70
71463;BMP180;59266;52.608;13.260;2024-03-29T10:12:47;99680.00;;;13.90
71463;BMP180;59266;52.608;13.260;2024-03-29T10:15:13;99688.00;;;13.50
71463;BMP180;59266;52.608;13.260;2024-03-29T10:17:47;99677.00;;;13.20
71463;BMP180;59266;52.608;13.260;2024-03-29T10:20:17;99670.00;;;13.40
71463;BMP180;59266;52.608;13.260;2024-03-29T10:22:44;99662.00;;;13.30
71463;BMP180;59266;52.608;13.260;2024-03-29T10:25:10;99649.00;;;13.40
71463;BMP180;59266;52.608;13.260;2024-03-29T10:27:36;99648.00;;;13.10
71463;BMP180;59266;52.608;13.260;2024-03-29T10:30:03;99660.00;;;13.00
71463;BMP180;59266;52.608;13.260;2024-03-29T10:32:29;99652.00;;;12.80
71463;BMP180;59266;52.608;13.260;2024-03-29T10:34:55;99648.00;;;12.70
71463;BMP180;59266;52.608;13.260;2024-03-29T10:37:20;99660.00;;;12.90
71463;BMP180;59266;52.608;13.260;2024-03-29T10:39:52;99654.00;;;13.00
71463;BMP180;59266;52.608;13.260;2024-03-29T10:42:20;99668.00;;;12.90
71463;BMP180;59266;52.608;13.260;2024-03-29T10:44:48;99653.00;;;12.80
71463;BMP180;59266;52.608;13.260;2024-03-29T10:47:18;99654.00;;;12.80
71463;BMP180;59266;52.608;13.260;2024-03-29T10:49:44;99649.00;;;13.10
71463;BMP180;59266;52.608;13.260;2024-03-29T10:52:13;99658.00;;;13.20
71463;BMP180;59266;52.608;13.260;2024-03-29T10:54:45;99660.00;;;13.20
71463;BMP180;59266;52.608;13.260;2024-03-29T10:57:25;99654.00;;;13.00
71463;BMP180;59266;52.608;13.260;2024-03-29T11:00:04;99648.00;;;12.80
71463;BMP180;59266;52.608;13.260;2024-03-29T11:02:42;99645.00;;;13.10
71463;BMP180;59266;52.608;13.260;2024-03-29T11:05:12;99647.00;;;13.00
71463;BMP180;59266;52.608;13.260;2024-03-29T11:07:40;99635.00;;;13.50
71463;BMP180;59266;52.608;13.260;2024-03-29T11:10:13;99624.00;;;13.50
71463;BMP180;59266;52.608;13.260;2024-03-29T11:15:37;99610.00;;;13.50
71463;BMP180;59266;52.608;13.260;2024-03-29T11:18:04;99606.00;;;13.40
71463;BMP180;59266;52.608;13.260;2024-03-29T11:20:30;99602.00;;;13.70
71463;BMP180;59266;52.608;13.260;2024-03-29T11:23:18;99597.00;;;14.00
71463;BMP180;59266;52.608;13.260;2024-03-29T11:25:48;99587.00;;;13.90
71463;BMP180;59266;52.608;13.260;2024-03-29T11:28:16;99582.00;;;14.20
71463;BMP180;59266;52.608;13.260;2024-03-29T11:30:49;99579.00;;;14.00
71463;BMP180;59266;52.608;13.260;2024-03-29T11:33:30;99573.00;;;13.70
71463;BMP180;59266;52.608;13.260;2024-03-29T11:35:57;99583.00;;;13.80
71463;BMP180;59266;52.608;13.260;2024-03-29T11:38:29;99581.00;;;13.80
71463;BMP180;59266;52.608;13.260;2024-03-29T11:41:06;99563.00;;;14.00
71463;BMP180;59266;52.608;13.260;2024-03-29T11:43:33;99570.00;;;14.30
71463;BMP180;59266;52.608;13.260;2024-03-29T11:46:00;99575.00;;;14.30
71463;BMP180;59266;52.608;13.260;2024-03-29T11:48:27;99577.00;;;14.30
71463;BMP180;59266;52.608;13.260;2024-03-29T11:50:54;99580.00;;;14.50
71463;BMP180;59266;52.608;13.260;2024-03-29T11:53:20;99579.00;;;14.10
71463;BMP180;59266;52.608;13.260;2024-03-29T11:55:46;99572.00;;;13.80
71463;BMP180;59266;52.608;13.260;2024-03-29T11:58:14;99562.00;;;13.90
71463;BMP180;59266;52.608;13.260;2024-03-29T12:00:41;99576.00;;;14.10
71463;BMP180;59266;52.608;13.260;2024-03-29T12:03:10;99575.00;;;13.80
71463;BMP180;59266;52.608;13.260;2024-03-29T12:05:35;99579.00;;;14.10
71463;BMP180;59266;52.608;13.260;2024-03-29T12:08:01;99577.00;;;14.00
71463;BMP180;59266;52.608;13.260;2024-03-29T12:10:30;99585.00;;;13.90
71463;BMP180;59266;52.608;13.260;2024-03-29T12:12:56;99571.00;;;14.10
71463;BMP180;59266;52.608;13.260;2024-03-29T12:15:27;99577.00;;;14.40
71463;BMP180;59266;52.608;13.260;2024-03-29T12:17:55;99581.00;;;14.30
71463;BMP180;59266;52.608;13.260;2024-03-29T12:20:20;99579.00;;;14.30
71463;BMP180;59266;52.608;13.260;2024-03-29T12:22:46;99580.00;;;14.30
71463;BMP180;59266;52.608;13.260;2024-03-29T12:25:12;99579.00;;;14.40
71463;BMP180;59266;52.608;13.260;2024-03-29T12:27:38;99581.00;;;14.20
71463;BMP180;59266;52.608;13.260;2024-03-29T12:30:05;99587.00;;;14.00
71463;BMP180;59266;52.608;13.260;2024-03-29T12:32:31;99557.00;;;13.90
71463;BMP180;59266;52.608;13.260;2024-03-29T12:35:07;99563.00;;;14.00
71463;BMP180;59266;52.608;13.260;2024-03-29T12:37:33;99557.00;;;14.20
71463;BMP180;59266;52.608;13.260;2024-03-29T12:39:59;99544.00;;;14.50
71463;BMP180;59266;52.608;13.260;2024-03-29T12:42:25;99547.00;;;14.60
71463;BMP180;59266;52.608;13.260;2024-03-29T12:44:51;99528.00;;;14.80
71463;BMP180;59266;52.608;13.260;2024-03-29T12:47:17;99516.00;;;15.30
71463;BMP180;59266;52.608;13.260;2024-03-29T12:49:43;99526.00;;;15.70
71463;BMP180;59266;52.608;13.260;2024-03-29T12:52:09;99540.00;;;15.50
71463;BMP180;59266;52.608;13.260;2024-03-29T12:54:35;99550.00;;;15.40
71463;BMP180;59266;52.608;13.260;2024-03-29T12:57:01;99549.00;;;15.50
71463;BMP180;59266;52.608;13.260;2024-03-29T12:59:28;99541.00;;;15.40
71463;BMP180;59266;52.608;13.260;2024-03-29T13:01:54;99541.00;;;15.30
71463;BMP180;59266;52.608;13.260;2024-03-29T13:04:22;99548.00;;;15.40
71463;BMP180;59266;52.608;13.260;2024-03-29T13:06:48;99532.00;;;15.30
71463;BMP180;59266;52.608;13.260;2024-03-29T13:09:13;99535.00;;;15.30
71463;BMP180;59266;52.608;13.260;2024-03-29T13:11:39;99547.00;;;15.10
71463;BMP180;59266;52.608;13.260;2024-03-29T13:14:06;99537.00;;;15.20
71463;BMP180;59266;52.608;13.260;2024-03-29T13:16:32;99517.00;;;15.10
71463;BMP180;59266;52.608;13.260;2024-03-29T13:18:58;99516.00;;;15.30
71463;BMP180;59266;52.608;13.260;2024-03-29T13:21:23;99516.00;;;15.10
71463;BMP180;59266;52.608;13.260;2024-03-29T13:23:49;99523.00;;;15.30
71463;BMP180;59266;52.608;13.260;2024-03-29T13:26:15;99504.00;;;15.30
71463;BMP180;59266;52.608;13.260;2024-03-29T13:28:41;99502.00;;;15.30
71463;BMP180;59266;52.608;13.260;2024-03-29T13:31:06;99504.00;;;15.50
71463;BMP180;59266;52.608;13.260;2024-03-29T13:33:32;99476.00;;;15.70
71463;BMP180;59266;52.608;13.260;2024-03-29T13:35:58;99481.00;;;16.10
71463;BMP180;59266;52.608;13.260;2024-03-29T13:38:23;99488.00;;;16.30
71463;BMP180;59266;52.608;13.260;2024-03-29T13:40:52;99484.00;;;16.40
71463;BMP180;59266;52.608;13.260;2024-03-29T13:43:18;99524.00;;;16.50
71463;BMP180;59266;52.608;13.260;2024-03-29T13:45:44;99501.00;;;16.30
71463;BMP180;59266;52.608;13.260;2024-03-29T13:48:09;99480.00;;;16.30
71463;BMP180;59266;52.608;13.260;2024-03-29T13:50:35;99474.00;;;16.80
71463;BMP180;59266;52.608;13.260;2024-03-29T13:53:01;99516.00;;;17.10
71463;BMP180;59266;52.608;13.260;2024-03-29T13:55:26;99501.00;;;16.90
71463;BMP180;59266;52.608;13.260;2024-03-29T13:57:53;99503.00;;;17.00
71463;BMP180;59266;52.608;13.260;2024-03-29T14:00:20;99461.00;;;17.00
71463;BMP180;59266;52.608;13.260;2024-03-29T14:02:46;99478.00;;;17.30